Time;durP1;ratioP1;P1;durP2;ratioP2;P2;SDS_P1;SDS_P2;PMS_P1;PMS_P2;Temp;Humidity;BMP_temperature;BMP_pressure;BME280_temperature;BME280_humidity;BME280_pressure;Samples;Min_cycle;Max_cycle;Signal;HPM_P1;HPM_P2
2022/09/14 00:00:15;;;;;;;0.00;0.00;;;;;;;;;;1759261;28;20466;-70
2022/09/14 00:01:08;;;;;;;0.00;0.00;;;;;;;;;;1760661;28;20215;-70
2022/09/14 00:01:59;;;;;;;0.00;0.00;;;;;;;;;;1760043;28;20243;-70
2022/09/14 00:02:51;;;;;;;0.00;0.00;;;;;;;;;;1760745;28;20210;-70
2022/09/14 00:03:44;;;;;;;0.00;0.00;;;;;;;;;;1759957;28;20236;-70
2022/09/14 00:04:37;;;;;;;0.00;0.00;;;;;;;;;;1760421;28;20201;-70
2022/09/14 00:05:29;;;;;;;0.00;0.00;;;;;;;;;;1758998;28;20244;-71
2022/09/14 00:06:22;;;;;;;0.00;0.00;;;;;;;;;;1760860;28;20448;-71
2022/09/14 00:07:13;;;;;;;0.00;0.00;;;;;;;;;;1760163;28;20265;-71
2022/09/14 00:08:05;;;;;;;0.00;0.00;;;;;;;;;;1760207;28;20193;-71
2022/09/14 00:08:59;;;;;;;0.00;0.00;;;;;;;;;;1761190;27;20201;-71
2022/09/14 00:09:52;;;;;;;0.00;0.00;;;;;;;;;;1760300;28;20193;-71
2022/09/14 00:10:43;;;;;;;0.00;0.00;;;;;;;;;;1759400;28;20315;-70
2022/09/14 00:11:36;;;;;;;0.00;0.00;;;;;;;;;;1759667;28;20275;-70
2022/09/14 00:12:27;;;;;;;0.00;0.00;;;;;;;;;;1760215;28;20209;-70
2022/09/14 00:13:19;;;;;;;0.00;0.00;;;;;;;;;;1760387;28;20273;-70
2022/09/14 00:14:11;;;;;;;0.00;0.00;;;;;;;;;;1760616;28;20753;-70
2022/09/14 00:15:06;;;;;;;0.00;0.00;;;;;;;;;;1760125;28;20207;-70
2022/09/14 00:16:02;;;;;;;0.00;0.00;;;;;;;;;;1759082;28;20690;-71
2022/09/14 00:16:54;;;;;;;0.00;0.00;;;;;;;;;;1760277;28;20221;-71
2022/09/14 00:17:45;;;;;;;0.00;0.00;;;;;;;;;;1760839;28;20673;-71
2022/09/14 00:18:38;;;;;;;0.00;0.00;;;;;;;;;;1760038;28;20212;-71
2022/09/14 00:19:30;;;;;;;0.00;0.00;;;;;;;;;;1760530;28;20638;-71
2022/09/14 00:20:23;;;;;;;0.00;0.00;;;;;;;;;;1758611;28;20208;-70
2022/09/14 00:21:14;;;;;;;0.00;0.00;;;;;;;;;;1760552;28;20296;-70
2022/09/14 00:22:06;;;;;;;0.00;0.00;;;;;;;;;;1759704;28;20219;-70
2022/09/14 00:22:57;;;;;;;0.00;0.00;;;;;;;;;;1760445;28;20208;-70
2022/09/14 00:23:50;;;;;;;0.00;0.00;;;;;;;;;;1759961;28;20259;-70
2022/09/14 00:24:41;;;;;;;0.00;0.00;;;;;;;;;;1760646;28;20197;-70
2022/09/14 00:25:33;;;;;;;0.00;0.00;;;;;;;;;;1758406;28;20259;-70
2022/09/14 00:26:25;;;;;;;0.00;0.00;;;;;;;;;;1760530;28;20518;-70
2022/09/14 00:27:17;;;;;;;0.00;0.00;;;;;;;;;;1760033;28;20524;-70
2022/09/14 00:28:08;;;;;;;0.00;0.00;;;;;;;;;;1760225;28;20287;-70
2022/09/14 00:29:03;;;;;;;0.00;0.00;;;;;;;;;;1760320;28;20201;-70
2022/09/14 00:29:55;;;;;;;0.00;0.00;;;;;;;;;;1760074;28;20197;-70
2022/09/14 00:30:46;;;;;;;0.00;0.00;;;;;;;;;;1759013;28;20265;-71
2022/09/14 00:31:39;;;;;;;0.00;0.00;;;;;;;;;;1760091;28;20195;-71
2022/09/14 00:32:31;;;;;;;0.00;0.00;;;;;;;;;;1756396;28;20716;-71
2022/09/14 00:33:23;;;;;;;0.00;0.00;;;;;;;;;;1759968;28;20537;-72
2022/09/14 00:34:15;;;;;;;0.00;0.00;;;;;;;;;;1760720;28;20568;-71
2022/09/14 00:35:09;;;;;;;0.00;0.00;;;;;;;;;;1760286;28;20634;-71
2022/09/14 00:36:05;;;;;;;0.00;0.00;;;;;;;;;;1758771;28;20232;-71
2022/09/14 00:36:57;;;;;;;0.00;0.00;;;;;;;;;;1759494;28;20190;-71
2022/09/14 00:37:50;;;;;;;0.03;0.03;;;;;;;;;;1760548;28;20442;-71
2022/09/14 00:38:42;;;;;;;0.00;0.00;;;;;;;;;;1761356;27;20196;-71
2022/09/14 00:39:33;;;;;;;0.00;0.00;;;;;;;;;;1760329;28;20208;-72
2022/09/14 00:40:26;;;;;;;0.00;0.00;;;;;;;;;;1758660;28;20196;-72
2022/09/14 00:41:18;;;;;;;0.00;0.00;;;;;;;;;;1753352;28;20206;-71
2022/09/14 00:42:14;;;;;;;0.00;0.00;;;;;;;;;;1758299;28;20204;-71
2022/09/14 00:43:09;;;;;;;0.00;0.00;;;;;;;;;;1760428;28;20209;-71
2022/09/14 00:44:04;;;;;;;0.00;0.00;;;;;;;;;;1760131;28;20681;-71
2022/09/14 00:44:58;;;;;;;0.00;0.00;;;;;;;;;;1759854;28;20718;-71
2022/09/14 00:45:50;;;;;;;0.00;0.00;;;;;;;;;;1759175;28;20558;-70
2022/09/14 00:46:42;;;;;;;0.00;0.00;;;;;;;;;;1759934;28;20257;-70
2022/09/14 00:47:35;;;;;;;0.00;0.00;;;;;;;;;;1760114;28;20212;-70
2022/09/14 00:48:26;;;;;;;0.00;0.00;;;;;;;;;;1759883;28;20375;-70
2022/09/14 00:49:20;;;;;;;0.00;0.00;;;;;;;;;;1760492;28;20204;-70
2022/09/14 00:50:13;;;;;;;0.00;0.00;;;;;;;;;;1759614;28;20209;-72
2022/09/14 00:51:06;;;;;;;0.00;0.00;;;;;;;;;;1759730;28;20236;-71
2022/09/14 00:51:59;;;;;;;0.00;0.00;;;;;;;;;;1759480;28;20204;-71
2022/09/14 00:52:52;;;;;;;0.00;0.00;;;;;;;;;;1760000;28;20262;-71
2022/09/14 00:53:44;;;;;;;0.00;0.00;;;;;;;;;;1759946;28;20612;-71
2022/09/14 00:54:36;;;;;;;0.00;0.00;;;;;;;;;;1760192;28;20765;-71
2022/09/14 00:55:28;;;;;;;0.00;0.00;;;;;;;;;;1758019;28;20245;-71
2022/09/14 00:56:19;;;;;;;0.00;0.00;;;;;;;;;;1760491;28;20236;-71
2022/09/14 00:57:11;;;;;;;0.00;0.00;;;;;;;;;;1759840;28;20355;-71
2022/09/14 00:58:03;;;;;;;0.00;0.00;;;;;;;;;;1760047;28;20542;-71
2022/09/14 00:58:56;;;;;;;0.00;0.00;;;;;;;;;;1759694;28;20588;-71
2022/09/14 00:59:50;;;;;;;0.00;0.00;;;;;;;;;;1760313;28;20258;-71
2022/09/14 01:00:41;;;;;;;0.00;0.00;;;;;;;;;;1758832;28;20232;-71
2022/09/14 01:01:34;;;;;;;0.00;0.00;;;;;;;;;;1759727;28;20220;-71
2022/09/14 01:02:26;;;;;;;0.00;0.00;;;;;;;;;;1759890;28;20216;-71
2022/09/14 01:03:19;;;;;;;0.00;0.00;;;;;;;;;;1759674;28;20261;-71
2022/09/14 01:04:10;;;;;;;0.00;0.00;;;;;;;;;;1756549;28;20216;-71
2022/09/14 01:05:04;;;;;;;0.00;0.00;;;;;;;;;;1759576;28;20569;-71
2022/09/14 01:06:01;;;;;;;0.00;0.00;;;;;;;;;;1758758;28;20305;-71
2022/09/14 01:06:56;;;;;;;0.00;0.00;;;;;;;;;;1759641;28;20590;-71
2022/09/14 01:08:02;;;;;;;0.00;0.00;;;;;;;;;;1759976;28;20201;-71
2022/09/14 01:09:03;;;;;;;0.00;0.00;;;;;;;;;;1760449;28;20193;-71
2022/09/14 01:09:57;;;;;;;0.00;0.00;;;;;;;;;;1759901;28;20665;-71
2022/09/14 01:11:00;;;;;;;0.00;0.00;;;;;;;;;;1759092;28;20556;-70
2022/09/14 01:11:58;;;;;;;0.00;0.00;;;;;;;;;;1759703;28;20209;-70
2022/09/14 01:12:56;;;;;;;0.00;0.00;;;;;;;;;;1760332;28;20666;-70
2022/09/14 01:13:51;;;;;;;0.00;0.00;;;;;;;;;;1759837;28;20213;-70
2022/09/14 01:14:49;;;;;;;0.00;0.00;;;;;;;;;;1760285;28;20197;-70
2022/09/14 01:15:45;;;;;;;0.00;0.00;;;;;;;;;;1758890;28;20580;-72
2022/09/14 01:16:41;;;;;;;0.00;0.00;;;;;;;;;;1759950;28;20705;-72
2022/09/14 01:17:38;;;;;;;0.00;0.00;;;;;;;;;;1760304;28;20284;-72
2022/09/14 01:18:34;;;;;;;0.00;0.00;;;;;;;;;;1759928;28;20291;-72
2022/09/14 01:19:31;;;;;;;0.00;0.00;;;;;;;;;;1760087;28;20212;-72
2022/09/14 01:20:26;;;;;;;0.00;0.00;;;;;;;;;;1758967;28;20192;-72
2022/09/14 01:21:20;;;;;;;0.00;0.00;;;;;;;;;;1762543;28;20592;-72
2022/09/14 01:22:15;;;;;;;0.00;0.00;;;;;;;;;;1761834;27;20251;-72
2022/09/14 01:23:09;;;;;;;0.00;0.00;;;;;;;;;;1762494;28;20185;-72
2022/09/14 01:24:04;;;;;;;0.00;0.00;;;;;;;;;;1762006;27;20205;-71
2022/09/14 01:25:03;;;;;;;0.00;0.00;;;;;;;;;;1761898;27;20208;-71
2022/09/14 01:26:06;;;;;;;0.00;0.00;;;;;;;;;;1757939;28;20230;-70
2022/09/14 01:27:25;;;;;;;0.00;0.00;;;;;;;;;;1761977;28;20463;-70
2022/09/14 01:28:21;;;;;;;0.00;0.00;;;;;;;;;;1733733;28;20207;-70
2022/09/14 01:29:16;;;;;;;0.00;0.00;;;;;;;;;;1743435;28;20224;-70
2022/09/14 01:30:08;;;;;;;0.00;0.00;;;;;;;;;;1762296;27;20257;-70
2022/09/14 01:31:04;;;;;;;0.00;0.00;;;;;;;;;;1761162;28;20360;-71
2022/09/14 01:31:59;;;;;;;0.00;0.00;;;;;;;;;;1761985;27;20203;-70
2022/09/14 01:32:54;;;;;;;0.00;0.00;;;;;;;;;;1762704;28;20196;-70
2022/09/14 01:33:47;;;;;;;0.00;0.00;;;;;;;;;;1762355;27;20594;-70
2022/09/14 01:34:44;;;;;;;0.00;0.00;;;;;;;;;;1762852;28;20204;-70
2022/09/14 01:35:37;;;;;;;0.00;0.00;;;;;;;;;;1760537;27;20361;-70
2022/09/14 01:36:33;;;;;;;0.00;0.00;;;;;;;;;;1762095;28;20212;-70
2022/09/14 01:37:26;;;;;;;0.00;0.00;;;;;;;;;;1761930;28;20208;-70
2022/09/14 01:38:21;;;;;;;0.00;0.00;;;;;;;;;;1763277;27;20200;-70
2022/09/14 01:39:13;;;;;;;0.00;0.00;;;;;;;;;;1760132;28;20245;-70
2022/09/14 01:40:07;;;;;;;0.00;0.00;;;;;;;;;;1762551;28;20945;-70
2022/09/14 01:41:00;;;;;;;0.00;0.00;;;;;;;;;;1760797;28;20786;-70
2022/09/14 01:41:53;;;;;;;0.00;0.00;;;;;;;;;;1761905;27;20197;-70
2022/09/14 01:42:46;;;;;;;0.00;0.00;;;;;;;;;;1762634;28;20201;-70
2022/09/14 01:43:41;;;;;;;0.00;0.00;;;;;;;;;;1762088;28;20192;-70
2022/09/14 01:44:33;;;;;;;0.00;0.00;;;;;;;;;;1762338;28;20204;-70
2022/09/14 01:45:27;;;;;;;0.00;0.00;;;;;;;;;;1760830;27;20661;-71
2022/09/14 01:46:21;;;;;;;0.00;0.00;;;;;;;;;;1762566;28;20357;-71
2022/09/14 01:47:15;;;;;;;0.00;0.00;;;;;;;;;;1762093;27;20205;-71
2022/09/14 01:48:09;;;;;;;0.00;0.00;;;;;;;;;;1762497;28;20209;-71
2022/09/14 01:49:02;;;;;;;0.00;0.00;;;;;;;;;;1762310;28;20209;-71
2022/09/14 01:49:58;;;;;;;0.00;0.00;;;;;;;;;;1762111;27;20552;-71
2022/09/14 01:50:51;;;;;;;0.00;0.00;;;;;;;;;;1761286;28;20239;-70
2022/09/14 01:51:46;;;;;;;0.00;0.00;;;;;;;;;;1761999;28;20659;-70
2022/09/14 01:52:39;;;;;;;0.00;0.00;;;;;;;;;;1762288;28;20193;-70
2022/09/14 01:53:33;;;;;;;0.00;0.00;;;;;;;;;;1762210;27;20781;-70
2022/09/14 01:54:26;;;;;;;0.00;0.00;;;;;;;;;;1762459;28;20481;-70
2022/09/14 01:55:20;;;;;;;0.00;0.00;;;;;;;;;;1760126;27;20207;-71
2022/09/14 01:56:14;;;;;;;0.00;0.00;;;;;;;;;;1762473;28;20680;-71
2022/09/14 01:57:09;;;;;;;0.00;0.00;;;;;;;;;;1761688;28;20207;-71
2022/09/14 01:58:02;;;;;;;0.00;0.00;;;;;;;;;;1762340;28;20201;-71
2022/09/14 01:58:58;;;;;;;0.00;0.00;;;;;;;;;;1761895;27;20224;-71
2022/09/14 01:59:50;;;;;;;0.00;0.00;;;;;;;;;;1762391;27;20273;-71
2022/09/14 02:00:45;;;;;;;0.00;0.00;;;;;;;;;;1761155;28;20267;-71
2022/09/14 02:01:37;;;;;;;0.00;0.00;;;;;;;;;;1762088;27;20201;-71
2022/09/14 02:02:31;;;;;;;0.00;0.00;;;;;;;;;;1761891;28;20559;-71
2022/09/14 02:03:25;;;;;;;0.00;0.00;;;;;;;;;;1761793;28;20201;-71
2022/09/14 02:04:20;;;;;;;0.00;0.00;;;;;;;;;;1762621;28;20203;-71
2022/09/14 02:05:15;;;;;;;0.00;0.00;;;;;;;;;;1762254;28;20275;-71
2022/09/14 02:06:10;;;;;;;0.00;0.00;;;;;;;;;;1760960;28;20312;-70
2022/09/14 02:07:01;;;;;;;0.00;0.00;;;;;;;;;;1761739;28;20205;-70
2022/09/14 02:07:53;;;;;;;0.00;0.00;;;;;;;;;;1761698;28;20224;-70
2022/09/14 02:08:46;;;;;;;0.00;0.00;;;;;;;;;;1763105;27;20532;-70
2022/09/14 02:09:38;;;;;;;0.00;0.00;;;;;;;;;;1755536;28;20541;-70
2022/09/14 02:10:29;;;;;;;0.00;0.00;;;;;;;;;;1759647;28;20232;-70
2022/09/14 02:11:22;;;;;;;0.00;0.00;;;;;;;;;;1762553;28;20207;-70
2022/09/14 02:12:13;;;;;;;0.00;0.00;;;;;;;;;;1761641;27;20217;-70
2022/09/14 02:13:05;;;;;;;0.00;0.00;;;;;;;;;;1762382;28;20235;-70
2022/09/14 02:13:58;;;;;;;0.00;0.00;;;;;;;;;;1761495;28;20318;-70
2022/09/14 02:14:52;;;;;;;0.00;0.00;;;;;;;;;;1762171;27;20200;-70
2022/09/14 02:15:43;;;;;;;0.00;0.00;;;;;;;;;;1760374;28;20331;-71
2022/09/14 02:16:36;;;;;;;0.00;0.00;;;;;;;;;;1761936;27;20258;-71
2022/09/14 02:17:28;;;;;;;0.00;0.00;;;;;;;;;;1762159;28;20265;-71
2022/09/14 02:18:21;;;;;;;0.00;0.00;;;;;;;;;;1762008;27;20197;-71
2022/09/14 02:19:12;;;;;;;0.00;0.00;;;;;;;;;;1762186;28;20275;-71
2022/09/14 02:20:07;;;;;;;0.00;0.00;;;;;;;;;;1762350;27;20215;-71
2022/09/14 02:20:59;;;;;;;0.00;0.00;;;;;;;;;;1760665;28;20267;-70
2022/09/14 02:21:52;;;;;;;0.00;0.00;;;;;;;;;;1761579;27;20496;-70
2022/09/14 02:22:44;;;;;;;0.00;0.00;;;;;;;;;;1762532;28;20201;-70
2022/09/14 02:23:36;;;;;;;0.00;0.00;;;;;;;;;;1761929;27;20288;-70
2022/09/14 02:24:27;;;;;;;0.00;0.00;;;;;;;;;;1762075;28;20380;-70
2022/09/14 02:25:20;;;;;;;0.00;0.00;;;;;;;;;;1760795;27;20620;-72
2022/09/14 02:26:12;;;;;;;0.00;0.00;;;;;;;;;;1762504;28;20197;-71
2022/09/14 02:27:05;;;;;;;0.00;0.00;;;;;;;;;;1761873;28;20237;-71
2022/09/14 02:27:56;;;;;;;0.00;0.00;;;;;;;;;;1762367;28;20283;-71
2022/09/14 02:28:49;;;;;;;0.00;0.00;;;;;;;;;;1761871;27;20193;-71
2022/09/14 02:29:41;;;;;;;0.00;0.00;;;;;;;;;;1762185;28;20205;-71
2022/09/14 02:30:44;;;;;;;0.00;0.00;;;;;;;;;;1760525;27;20961;-71
2022/09/14 02:31:40;;;;;;;0.00;0.00;;;;;;;;;;1761722;27;20201;-71
2022/09/14 02:32:36;;;;;;;0.00;0.00;;;;;;;;;;1756746;28;20349;-71
2022/09/14 02:33:31;;;;;;;0.00;0.00;;;;;;;;;;1760706;28;20227;-71
2022/09/14 02:34:26;;;;;;;0.00;0.00;;;;;;;;;;1761677;28;20528;-71
2022/09/14 02:35:21;;;;;;;0.00;0.00;;;;;;;;;;1759955;28;20650;-71
2022/09/14 02:36:17;;;;;;;0.00;0.00;;;;;;;;;;1762273;28;20240;-71
2022/09/14 02:37:10;;;;;;;0.00;0.00;;;;;;;;;;1760945;28;20295;-71
2022/09/14 02:38:06;;;;;;;0.00;0.00;;;;;;;;;;1761574;28;20193;-71
2022/09/14 02:39:02;;;;;;;0.00;0.00;;;;;;;;;;1760943;28;20269;-71
2022/09/14 02:40:03;;;;;;;0.00;0.00;;;;;;;;;;1761511;27;20197;-71
2022/09/14 02:40:56;;;;;;;0.00;0.00;;;;;;;;;;1756271;28;20289;-71
2022/09/14 02:41:50;;;;;;;0.00;0.00;;;;;;;;;;1760971;28;20270;-71
2022/09/14 02:42:46;;;;;;;0.00;0.00;;;;;;;;;;1761225;28;20221;-71
2022/09/14 02:43:42;;;;;;;0.00;0.00;;;;;;;;;;1760869;28;20597;-71
2022/09/14 02:44:35;;;;;;;0.00;0.00;;;;;;;;;;1761319;28;20205;-71
2022/09/14 02:45:31;;;;;;;0.00;0.00;;;;;;;;;;1759444;28;20481;-70
2022/09/14 02:46:26;;;;;;;0.00;0.00;;;;;;;;;;1761112;28;20209;-70
2022/09/14 02:47:23;;;;;;;0.00;0.00;;;;;;;;;;1760826;28;20284;-70
2022/09/14 02:48:19;;;;;;;0.00;0.00;;;;;;;;;;1760968;28;20197;-70
2022/09/14 02:49:16;;;;;;;0.00;0.00;;;;;;;;;;1757592;28;20197;-70
2022/09/14 02:50:12;;;;;;;0.00;0.00;;;;;;;;;;1760308;28;20296;-70
2022/09/14 02:51:08;;;;;;;0.00;0.00;;;;;;;;;;1760513;28;20569;-70
2022/09/14 02:52:02;;;;;;;0.00;0.00;;;;;;;;;;1760132;28;20257;-70
2022/09/14 02:52:59;;;;;;;0.00;0.00;;;;;;;;;;1761360;28;20208;-70
2022/09/14 02:53:53;;;;;;;0.00;0.00;;;;;;;;;;1760809;28;20201;-70
2022/09/14 02:54:49;;;;;;;0.00;0.00;;;;;;;;;;1761354;28;20279;-70
2022/09/14 02:55:42;;;;;;;0.00;0.00;;;;;;;;;;1759076;28;20327;-71
2022/09/14 02:56:34;;;;;;;0.00;0.00;;;;;;;;;;1760862;28;20550;-71
2022/09/14 02:57:26;;;;;;;0.00;0.00;;;;;;;;;;1760896;28;20615;-71
2022/09/14 02:58:17;;;;;;;0.00;0.00;;;;;;;;;;1760953;28;20233;-71
2022/09/14 02:59:09;;;;;;;0.00;0.00;;;;;;;;;;1760998;28;20232;-71
2022/09/14 03:00:04;;;;;;;0.00;0.00;;;;;;;;;;1760590;28;20269;-71
2022/09/14 03:00:57;;;;;;;0.00;0.00;;;;;;;;;;1759574;28;20236;-70
2022/09/14 03:01:49;;;;;;;0.00;0.00;;;;;;;;;;1760532;28;20580;-70
2022/09/14 03:02:41;;;;;;;0.00;0.00;;;;;;;;;;1760648;28;20618;-70
2022/09/14 03:03:32;;;;;;;0.00;0.00;;;;;;;;;;1760517;28;20196;-70
2022/09/14 03:04:24;;;;;;;0.00;0.00;;;;;;;;;;1760955;28;20229;-70
2022/09/14 03:05:16;;;;;;;0.00;0.00;;;;;;;;;;1754028;28;20289;-70
2022/09/14 03:06:08;;;;;;;0.00;0.00;;;;;;;;;;1753932;28;20201;-70
2022/09/14 03:06:59;;;;;;;0.00;0.00;;;;;;;;;;1753120;28;20290;-70
2022/09/14 03:07:51;;;;;;;0.00;0.00;;;;;;;;;;1753016;28;20198;-71
2022/09/14 03:08:43;;;;;;;0.00;0.00;;;;;;;;;;1753348;28;20834;-70
2022/09/14 03:09:35;;;;;;;0.00;0.00;;;;;;;;;;1753838;28;20626;-70
2022/09/14 03:10:27;;;;;;;0.00;0.00;;;;;;;;;;1753840;28;20585;-70
2022/09/14 03:11:18;;;;;;;0.00;0.00;;;;;;;;;;1754249;28;20278;-70
2022/09/14 03:12:11;;;;;;;0.00;0.00;;;;;;;;;;1753325;28;20202;-70
2022/09/14 03:13:02;;;;;;;0.00;0.00;;;;;;;;;;1753675;28;20205;-70
2022/09/14 03:13:54;;;;;;;0.00;0.00;;;;;;;;;;1753480;28;20208;-70
2022/09/14 03:14:46;;;;;;;0.00;0.00;;;;;;;;;;1754217;28;20209;-70
2022/09/14 03:15:38;;;;;;;0.00;0.00;;;;;;;;;;1753783;28;20219;-70
2022/09/14 03:16:31;;;;;;;0.00;0.00;;;;;;;;;;1753962;28;20198;-70
2022/09/14 03:17:23;;;;;;;0.00;0.00;;;;;;;;;;1753611;28;20315;-70
2022/09/14 03:18:14;;;;;;;0.00;0.00;;;;;;;;;;1753448;28;20205;-70
2022/09/14 03:19:06;;;;;;;0.00;0.00;;;;;;;;;;1753724;28;20202;-70
2022/09/14 03:19:58;;;;;;;0.00;0.00;;;;;;;;;;1753647;28;20292;-70
2022/09/14 03:20:50;;;;;;;0.00;0.00;;;;;;;;;;1750493;28;20468;-70
2022/09/14 03:21:42;;;;;;;0.00;0.00;;;;;;;;;;1753576;28;20262;-70
2022/09/14 03:22:34;;;;;;;0.00;0.00;;;;;;;;;;1746411;28;20201;-70
2022/09/14 03:23:25;;;;;;;0.00;0.00;;;;;;;;;;1749402;28;20205;-70
2022/09/14 03:24:17;;;;;;;0.00;0.00;;;;;;;;;;1746494;28;20287;-70
2022/09/14 03:25:09;;;;;;;0.10;0.10;;;;;;;;;;1747050;28;20214;-70
2022/09/14 03:26:01;;;;;;;0.00;0.00;;;;;;;;;;1751390;28;20194;-70
2022/09/14 03:26:52;;;;;;;0.00;0.00;;;;;;;;;;1749586;28;20297;-70
2022/09/14 03:27:48;;;;;;;0.00;0.00;;;;;;;;;;1747158;28;20190;-70
2022/09/14 03:28:39;;;;;;;0.00;0.00;;;;;;;;;;1748782;28;20667;-70
2022/09/14 03:29:32;;;;;;;0.00;0.00;;;;;;;;;;1746439;28;20210;-70
2022/09/14 03:30:23;;;;;;;0.00;0.00;;;;;;;;;;1745464;28;20786;-71
2022/09/14 03:31:16;;;;;;;0.00;0.00;;;;;;;;;;1753502;28;20543;-71
2022/09/14 03:32:09;;;;;;;0.00;0.00;;;;;;;;;;1747117;28;20582;-71
2022/09/14 03:33:02;;;;;;;0.00;0.00;;;;;;;;;;1749370;28;20199;-71
2022/09/14 03:33:53;;;;;;;0.00;0.00;;;;;;;;;;1746652;28;20204;-71
2022/09/14 03:34:46;;;;;;;0.00;0.00;;;;;;;;;;1747011;28;20713;-71
2022/09/14 03:35:37;;;;;;;0.00;0.00;;;;;;;;;;1746443;28;20775;-70
2022/09/14 03:36:30;;;;;;;0.00;0.00;;;;;;;;;;1753176;28;20286;-70
2022/09/14 03:37:22;;;;;;;0.00;0.00;;;;;;;;;;1752389;28;20201;-70
2022/09/14 03:38:13;;;;;;;0.00;0.00;;;;;;;;;;1748743;28;20209;-70
2022/09/14 03:39:05;;;;;;;0.00;0.00;;;;;;;;;;1746621;28;20569;-70
2022/09/14 03:39:56;;;;;;;0.00;0.00;;;;;;;;;;1748081;28;20209;-70
2022/09/14 03:40:48;;;;;;;0.00;0.00;;;;;;;;;;1752386;28;20229;-71
2022/09/14 03:41:39;;;;;;;0.00;0.00;;;;;;;;;;1753373;28;20201;-71
2022/09/14 03:42:31;;;;;;;0.00;0.00;;;;;;;;;;1749689;28;20405;-71
2022/09/14 03:43:23;;;;;;;0.00;0.00;;;;;;;;;;1753312;28;20657;-71
2022/09/14 03:44:15;;;;;;;0.00;0.00;;;;;;;;;;1753552;28;20286;-71
2022/09/14 03:45:07;;;;;;;0.00;0.00;;;;;;;;;;1753496;28;20206;-71
2022/09/14 03:45:59;;;;;;;0.00;0.00;;;;;;;;;;1751998;28;20233;-70
2022/09/14 03:46:50;;;;;;;0.00;0.00;;;;;;;;;;1753402;28;20201;-70
2022/09/14 03:47:44;;;;;;;0.00;0.00;;;;;;;;;;1753614;28;20316;-70
2022/09/14 03:48:36;;;;;;;0.00;0.00;;;;;;;;;;1753273;28;20209;-70
2022/09/14 03:49:28;;;;;;;0.00;0.00;;;;;;;;;;1753522;28;20295;-70
2022/09/14 03:50:19;;;;;;;0.00;0.00;;;;;;;;;;1752109;28;20639;-70
2022/09/14 03:51:12;;;;;;;0.00;0.00;;;;;;;;;;1753554;28;20607;-70
2022/09/14 03:52:03;;;;;;;0.00;0.00;;;;;;;;;;1752916;28;20610;-70
2022/09/14 03:52:55;;;;;;;0.00;0.00;;;;;;;;;;1753708;28;20228;-70
2022/09/14 03:53:47;;;;;;;0.00;0.00;;;;;;;;;;1753381;28;20205;-70
2022/09/14 03:54:39;;;;;;;0.00;0.00;;;;;;;;;;1753854;28;20283;-70
2022/09/14 03:55:30;;;;;;;0.00;0.00;;;;;;;;;;1751158;28;20237;-71
2022/09/14 03:56:23;;;;;;;0.00;0.00;;;;;;;;;;1753456;28;20201;-71
2022/09/14 03:57:15;;;;;;;0.00;0.00;;;;;;;;;;1753160;28;20297;-71
2022/09/14 03:58:07;;;;;;;0.00;0.00;;;;;;;;;;1753816;28;20208;-71
2022/09/14 03:58:58;;;;;;;0.00;0.00;;;;;;;;;;1752954;28;20209;-71
2022/09/14 03:59:50;;;;;;;0.00;0.00;;;;;;;;;;1753571;28;20198;-71
2022/09/14 04:00:42;;;;;;;0.00;0.00;;;;;;;;;;1752070;28;20233;-70
2022/09/14 04:01:34;;;;;;;0.00;0.00;;;;;;;;;;1745985;28;20209;-70
2022/09/14 04:02:25;;;;;;;0.00;0.00;;;;;;;;;;1752245;28;20209;-70
2022/09/14 04:03:19;;;;;;;0.00;0.00;;;;;;;;;;1753315;28;20235;-70
2022/09/14 04:04:10;;;;;;;0.00;0.00;;;;;;;;;;1753393;28;20201;-70
2022/09/14 04:05:07;;;;;;;0.00;0.00;;;;;;;;;;1758061;28;20885;-70
2022/09/14 04:05:58;;;;;;;0.00;0.00;;;;;;;;;;1766376;27;20239;-70
2022/09/14 04:06:50;;;;;;;0.05;0.05;;;;;;;;;;1763719;27;20201;-70
2022/09/14 04:07:41;;;;;;;0.00;0.00;;;;;;;;;;1759513;28;20531;-70
2022/09/14 04:08:34;;;;;;;0.00;0.00;;;;;;;;;;1756791;28;20204;-70
2022/09/14 04:09:25;;;;;;;0.00;0.00;;;;;;;;;;1759395;28;20212;-70
2022/09/14 04:10:18;;;;;;;0.00;0.00;;;;;;;;;;1761425;27;20201;-71
2022/09/14 04:11:09;;;;;;;0.00;0.00;;;;;;;;;;1767756;27;20204;-71
2022/09/14 04:12:02;;;;;;;0.00;0.00;;;;;;;;;;1765159;27;20283;-71
2022/09/14 04:12:53;;;;;;;0.00;0.00;;;;;;;;;;1767378;27;20215;-71
2022/09/14 04:13:45;;;;;;;0.00;0.00;;;;;;;;;;1765721;27;20706;-71
2022/09/14 04:14:37;;;;;;;0.00;0.00;;;;;;;;;;1767737;27;20200;-71
2022/09/14 04:15:29;;;;;;;0.00;0.00;;;;;;;;;;1764245;27;26208;-71
2022/09/14 04:16:20;;;;;;;0.00;0.00;;;;;;;;;;1767806;27;20633;-71
2022/09/14 04:17:13;;;;;;;0.00;0.00;;;;;;;;;;1765395;27;20211;-71
2022/09/14 04:18:04;;;;;;;0.00;0.00;;;;;;;;;;1767439;27;20208;-71
2022/09/14 04:18:57;;;;;;;0.00;0.00;;;;;;;;;;1765244;27;20656;-71
2022/09/14 04:19:49;;;;;;;0.00;0.00;;;;;;;;;;1767459;27;20228;-71
2022/09/14 04:20:41;;;;;;;0.00;0.00;;;;;;;;;;1764610;27;20235;-71
2022/09/14 04:21:32;;;;;;;0.00;0.00;;;;;;;;;;1766545;27;20211;-71
2022/09/14 04:22:24;;;;;;;0.00;0.00;;;;;;;;;;1766204;27;20703;-71
2022/09/14 04:23:15;;;;;;;0.00;0.00;;;;;;;;;;1765805;27;20228;-71
2022/09/14 04:24:08;;;;;;;0.00;0.00;;;;;;;;;;1766926;27;20210;-71
2022/09/14 04:24:59;;;;;;;0.00;0.00;;;;;;;;;;1765353;27;20311;-71
2022/09/14 04:25:51;;;;;;;0.00;0.00;;;;;;;;;;1766423;27;20557;-71
2022/09/14 04:26:43;;;;;;;0.00;0.00;;;;;;;;;;1765209;27;20640;-71
2022/09/14 04:27:34;;;;;;;0.00;0.00;;;;;;;;;;1767513;27;20200;-71
2022/09/14 04:28:27;;;;;;;0.00;0.00;;;;;;;;;;1765299;27;20609;-71
2022/09/14 04:29:18;;;;;;;0.00;0.00;;;;;;;;;;1767431;27;20603;-71
2022/09/14 04:30:11;;;;;;;0.00;0.00;;;;;;;;;;1764912;27;20689;-69
2022/09/14 04:31:02;;;;;;;0.00;0.00;;;;;;;;;;1766838;27;20236;-70
2022/09/14 04:31:54;;;;;;;0.00;0.00;;;;;;;;;;1764956;27;20224;-70
2022/09/14 04:32:46;;;;;;;0.00;0.00;;;;;;;;;;1767812;27;20482;-70
2022/09/14 04:33:39;;;;;;;0.00;0.00;;;;;;;;;;1765291;27;20197;-70
2022/09/14 04:34:31;;;;;;;0.00;0.00;;;;;;;;;;1767018;27;20569;-70
2022/09/14 04:35:23;;;;;;;0.00;0.00;;;;;;;;;;1764311;27;20214;-71
2022/09/14 04:36:16;;;;;;;0.00;0.00;;;;;;;;;;1767605;27;20207;-71
2022/09/14 04:37:08;;;;;;;0.00;0.00;;;;;;;;;;1761226;27;20622;-71
2022/09/14 04:37:59;;;;;;;0.00;0.00;;;;;;;;;;1757640;28;20205;-71
2022/09/14 04:38:53;;;;;;;0.00;0.00;;;;;;;;;;1757891;28;20208;-71
2022/09/14 04:39:45;;;;;;;0.00;0.00;;;;;;;;;;1760336;28;20630;-71
2022/09/14 04:40:41;;;;;;;0.00;0.00;;;;;;;;;;1763735;27;20227;-71
2022/09/14 04:41:33;;;;;;;0.00;0.00;;;;;;;;;;1766426;27;20201;-71
2022/09/14 04:42:25;;;;;;;0.00;0.00;;;;;;;;;;1766043;27;20323;-71
2022/09/14 04:43:16;;;;;;;0.00;0.00;;;;;;;;;;1766082;27;20220;-71
2022/09/14 04:44:08;;;;;;;0.00;0.00;;;;;;;;;;1766968;27;20196;-71
2022/09/14 04:44:59;;;;;;;0.00;0.00;;;;;;;;;;1765250;27;20212;-71
2022/09/14 04:45:51;;;;;;;0.00;0.00;;;;;;;;;;1766378;27;20606;-70
2022/09/14 04:46:43;;;;;;;0.00;0.00;;;;;;;;;;1765321;27;20207;-70
2022/09/14 04:47:34;;;;;;;0.00;0.00;;;;;;;;;;1767556;27;20216;-70
2022/09/14 04:48:25;;;;;;;0.00;0.00;;;;;;;;;;1765179;27;20674;-70
2022/09/14 04:49:17;;;;;;;0.00;0.00;;;;;;;;;;1767663;27;20196;-70
2022/09/14 04:50:10;;;;;;;0.00;0.00;;;;;;;;;;1764668;27;20238;-72
2022/09/14 04:51:03;;;;;;;0.00;0.00;;;;;;;;;;1766686;27;20239;-71
2022/09/14 04:51:54;;;;;;;0.00;0.00;;;;;;;;;;1764932;27;20657;-71
2022/09/14 04:52:46;;;;;;;0.00;0.00;;;;;;;;;;1760646;27;20197;-71
2022/09/14 04:53:38;;;;;;;0.00;0.00;;;;;;;;;;1759842;28;20208;-71
2022/09/14 04:54:30;;;;;;;0.00;0.00;;;;;;;;;;1760390;28;20209;-71
2022/09/14 04:55:23;;;;;;;0.00;0.00;;;;;;;;;;1760538;28;20211;-70
2022/09/14 04:56:14;;;;;;;0.00;0.00;;;;;;;;;;1766818;27;20216;-70
2022/09/14 04:57:06;;;;;;;0.00;0.00;;;;;;;;;;1765147;27;20204;-70
2022/09/14 04:57:58;;;;;;;0.00;0.00;;;;;;;;;;1767508;27;20212;-70
2022/09/14 04:58:50;;;;;;;0.00;0.00;;;;;;;;;;1765178;27;20625;-70
2022/09/14 04:59:42;;;;;;;0.00;0.00;;;;;;;;;;1767490;27;20257;-70
2022/09/14 05:00:34;;;;;;;0.00;0.00;;;;;;;;;;1763802;27;20232;-71
2022/09/14 05:01:27;;;;;;;0.00;0.00;;;;;;;;;;1767176;27;20272;-71
2022/09/14 05:02:19;;;;;;;0.00;0.00;;;;;;;;;;1764992;27;20602;-71
2022/09/14 05:03:11;;;;;;;0.00;0.00;;;;;;;;;;1766876;27;20204;-71
2022/09/14 05:04:03;;;;;;;0.00;0.00;;;;;;;;;;1765853;27;20649;-71
2022/09/14 05:04:55;;;;;;;0.00;0.00;;;;;;;;;;1765960;27;20677;-71
2022/09/14 05:05:47;;;;;;;0.00;0.00;;;;;;;;;;1765589;27;20243;-71
2022/09/14 05:06:40;;;;;;;0.00;0.00;;;;;;;;;;1764645;27;20249;-71
2022/09/14 05:07:32;;;;;;;0.00;0.00;;;;;;;;;;1756109;28;20215;-71
2022/09/14 05:08:24;;;;;;;0.00;0.00;;;;;;;;;;1755998;28;20228;-71
2022/09/14 05:09:16;;;;;;;0.00;0.00;;;;;;;;;;1759297;28;20534;-71
2022/09/14 05:10:08;;;;;;;0.00;0.00;;;;;;;;;;1761120;28;20201;-71
2022/09/14 05:11:00;;;;;;;0.00;0.00;;;;;;;;;;1766142;27;20242;-71
2022/09/14 05:11:52;;;;;;;0.00;0.00;;;;;;;;;;1764783;27;20261;-71
2022/09/14 05:12:43;;;;;;;0.00;0.00;;;;;;;;;;1767228;27;20200;-71
2022/09/14 05:13:35;;;;;;;0.00;0.00;;;;;;;;;;1765009;28;20221;-71
2022/09/14 05:14:26;;;;;;;0.00;0.00;;;;;;;;;;1767322;27;20279;-71
2022/09/14 05:15:19;;;;;;;0.00;0.00;;;;;;;;;;1760236;27;21179;-71
2022/09/14 05:16:12;;;;;;;0.00;0.00;;;;;;;;;;1760430;28;20219;-71
2022/09/14 05:17:05;;;;;;;0.00;0.00;;;;;;;;;;1759509;28;20211;-71
2022/09/14 05:17:56;;;;;;;0.00;0.00;;;;;;;;;;1759759;28;20200;-71